Time;durP1;ratioP1;P1;durP2;ratioP2;P2;SDS_P1;SDS_P2;PMS_P1;PMS_P2;Temp;Humidity;BMP_temperature;BMP_pressure;BME280_temperature;BME280_humidity;BME280_pressure;Samples;Min_cycle;Max_cycle;Signal;HPM_P1;HPM_P2
2024/01/01 00:01:58;;;;;;;11.07;5.72;;;;;;;9.23;42.67;99717.22;4983193;28;20058;-86
2024/01/01 00:04:29;;;;;;;10.02;5.97;;;;;;;9.26;42.83;99727.81;4971767;28;20039;-86
2024/01/01 00:06:58;;;;;;;9.20;5.28;;;;;;;9.26;42.91;99724.22;4973584;28;20129;-86
2024/01/01 00:09:26;;;;;;;8.40;4.68;;;;;;;9.23;42.87;99741.78;4972222;28;20138;-86
2024/01/01 00:11:55;;;;;;;9.10;4.57;;;;;;;9.28;42.62;99719.47;4957159;28;20119;-85
2024/01/01 00:14:24;;;;;;;6.45;3.75;;;;;;;9.27;42.77;99725.94;4959902;28;20043;-84
2024/01/01 00:16:53;;;;;;;9.07;4.80;;;;;;;9.26;42.71;99718.75;4972723;28;20047;-85
2024/01/01 00:19:21;;;;;;;7.07;3.80;;;;;;;9.23;42.42;99714.47;4970701;28;20407;-85
2024/01/01 00:21:50;;;;;;;7.57;3.90;;;;;;;9.23;42.69;99722.66;4972108;28;20051;-84
2024/01/01 00:24:18;;;;;;;10.23;4.22;;;;;;;9.25;42.54;99730.69;4956396;28;20042;-84
2024/01/01 00:26:47;;;;;;;7.25;3.83;;;;;;;9.22;42.30;99720.09;4956700;28;20101;-86
2024/01/01 00:29:15;;;;;;;7.28;4.25;;;;;;;9.22;42.47;99718.22;4956529;28;20049;-84
2024/01/01 00:31:56;;;;;;;8.35;4.43;;;;;;;9.22;42.09;99717.34;4970893;28;20053;-85
2024/01/01 00:37:22;;;;;;;7.93;4.00;;;;;;;9.19;42.36;99718.50;4968136;28;20063;-84
2024/01/01 00:39:51;;;;;;;6.85;3.72;;;;;;;9.18;42.42;99710.47;4954780;28;20105;-84
2024/01/01 00:42:22;;;;;;;8.38;4.10;;;;;;;9.18;42.04;99719.53;4959244;28;20089;-84
2024/01/01 00:45:07;;;;;;;8.57;3.55;;;;;;;9.16;42.19;99716.13;4958058;28;20046;-84
2024/01/01 00:47:47;;;;;;;7.03;3.10;;;;;;;9.20;41.57;99714.78;4973043;28;20043;-85
2024/01/01 00:50:16;;;;;;;5.60;3.10;;;;;;;9.16;42.18;99720.72;4979690;28;20046;-84
2024/01/01 00:52:48;;;;;;;6.75;2.67;;;;;;;9.15;41.92;99717.13;4981098;28;20055;-84
2024/01/01 00:55:16;;;;;;;5.80;3.13;;;;;;;9.15;42.28;99724.44;4955332;28;20055;-84
2024/01/01 00:57:47;;;;;;;4.65;2.45;;;;;;;9.14;41.88;99709.94;4976019;28;20129;-84
2024/01/01 01:00:17;;;;;;;4.55;2.72;;;;;;;9.15;42.29;99730.78;4965836;28;20038;-84
2024/01/01 01:02:47;;;;;;;7.65;2.83;;;;;;;9.15;41.76;99716.25;4980166;28;20039;-84
2024/01/01 01:05:19;;;;;;;7.75;2.60;;;;;;;9.15;42.21;99714.38;4953643;28;20558;-84
2024/01/01 01:07:50;;;;;;;5.00;2.10;;;;;;;9.16;41.82;99715.25;4971434;28;20039;-83
2024/01/01 01:10:23;;;;;;;4.88;2.28;;;;;;;9.14;41.70;99714.53;4957781;28;20567;-84
2024/01/01 01:12:53;;;;;;;3.47;1.73;;;;;;;9.14;42.16;99711.81;4959375;28;20051;-84
2024/01/01 01:18:09;;;;;;;5.10;1.67;;;;;;;9.15;41.68;99705.34;4978087;28;20127;-84
2024/01/01 01:20:38;;;;;;;5.57;1.75;;;;;;;9.14;42.17;99700.88;4974073;28;20046;-84
2024/01/01 01:23:09;;;;;;;7.80;4.10;;;;;;;9.15;41.91;99699.88;4958124;28;20050;-85
2024/01/01 01:25:44;;;;;;;6.20;2.20;;;;;;;9.15;41.92;99697.16;4972871;28;20046;-85
2024/01/01 01:28:12;;;;;;;6.28;2.08;;;;;;;9.14;41.91;99699.03;4979682;28;20046;-85
2024/01/01 01:30:41;;;;;;;4.25;1.67;;;;;;;9.12;41.64;99678.34;4959513;28;20038;-84
2024/01/01 01:33:11;;;;;;;5.75;1.70;;;;;;;9.14;41.56;99674.47;4980251;28;20137;-85
2024/01/01 01:35:40;;;;;;;4.78;1.30;;;;;;;9.12;41.59;99661.97;4958255;28;20515;-85
2024/01/01 01:38:10;;;;;;;3.80;1.38;;;;;;;9.13;41.69;99677.34;4974721;28;20052;-84
2024/01/01 01:40:38;;;;;;;4.20;1.30;;;;;;;9.12;41.69;99679.19;4956795;28;20109;-84
2024/01/01 01:43:25;;;;;;;7.07;2.08;;;;;;;9.14;40.65;99687.25;4957782;28;20105;-85
2024/01/01 01:45:57;;;;;;;4.20;1.20;;;;;;;9.10;41.17;99690.25;4973293;28;20049;-83
2024/01/01 01:48:31;;;;;;;5.05;1.42;;;;;;;9.12;41.03;99676.47;4974815;28;20055;-85
2024/01/01 01:51:06;;;;;;;4.20;1.45;;;;;;;9.10;41.25;99686.69;4977052;28;20050;-85
2024/01/01 01:53:41;;;;;;;5.00;1.27;;;;;;;9.10;41.66;99682.06;4977278;28;20055;-85
2024/01/01 01:56:17;;;;;;;6.00;1.50;;;;;;;9.10;41.47;99679.34;4954165;28;20050;-85
2024/01/01 01:58:49;;;;;;;6.03;1.40;;;;;;;9.12;41.52;99679.19;4957676;28;20042;-86
2024/01/01 02:01:21;;;;;;;3.65;1.30;;;;;;;9.14;41.35;99681.78;4977791;28;20047;-85
2024/01/01 02:03:53;;;;;;;6.57;1.50;;;;;;;9.14;41.13;99668.13;4956781;28;20070;-84
2024/01/01 02:06:22;;;;;;;4.68;1.50;;;;;;;9.14;41.54;99679.06;4974061;28;20067;-84
2024/01/01 02:08:53;;;;;;;5.68;1.58;;;;;;;9.13;41.78;99680.91;4977774;28;20043;-85
2024/01/01 02:11:27;;;;;;;3.50;1.42;;;;;;;9.16;41.43;99688.81;4960188;28;20647;-84
2024/01/01 02:14:16;;;;;;;4.68;1.80;;;;;;;9.15;42.05;99721.72;4969364;28;20181;-86
2024/01/01 02:17:12;;;;;;;;;;;;;;;;;;;;;
2024/01/01 02:20:03;;;;;;;5.05;1.17;;;;;;;9.11;42.39;99723.88;4978018;28;20049;-85
2024/01/01 02:22:47;;;;;;;3.63;1.23;;;;;;;9.09;42.43;99736.81;4978023;28;20047;-86
2024/01/01 02:25:17;;;;;;;4.88;1.40;;;;;;;9.06;42.61;99738.00;4964758;28;20106;-84
2024/01/01 02:27:45;;;;;;;3.97;1.30;;;;;;;9.02;42.43;99735.72;4971985;28;20054;-83
2024/01/01 02:30:13;;;;;;;5.70;1.80;;;;;;;8.99;42.59;99734.16;4973652;28;20050;-81
2024/01/01 02:32:42;;;;;;;3.88;1.25;;;;;;;8.94;42.70;99733.75;4983256;28;20078;-84
2024/01/01 02:35:12;;;;;;;3.60;1.05;;;;;;;8.91;43.04;99735.94;4975330;28;20038;-84
2024/01/01 02:37:40;;;;;;;3.92;1.15;;;;;;;8.87;43.34;99743.53;4976197;28;20133;-83
2024/01/01 02:40:09;;;;;;;3.55;1.10;;;;;;;8.82;43.34;99740.41;4959765;28;20047;-82
2024/01/01 02:42:39;;;;;;;2.95;1.42;;;;;;;8.80;43.32;99745.16;4960403;28;20066;-81
2024/01/01 02:45:09;;;;;;;5.65;1.40;;;;;;;8.75;43.35;99735.72;4980050;28;20039;-82
2024/01/01 02:47:37;;;;;;;4.28;1.38;;;;;;;8.70;43.57;99734.28;4975677;28;20047;-82
2024/01/01 02:50:07;;;;;;;4.35;1.20;;;;;;;8.67;43.70;99731.84;4959743;28;20046;-83
2024/01/01 02:52:36;;;;;;;4.47;1.20;;;;;;;8.65;43.89;99733.88;4973702;28;20110;-82
2024/01/01 02:55:06;;;;;;;4.40;1.40;;;;;;;8.63;44.31;99737.75;4957731;28;20118;-82
2024/01/01 02:57:34;;;;;;;4.93;1.50;;;;;;;8.60;44.40;99743.50;4976462;28;20039;-81
2024/01/01 03:00:08;;;;;;;4.70;1.60;;;;;;;8.57;44.29;99738.38;4974492;28;20134;-81
2024/01/01 03:02:39;;;;;;;4.22;1.30;;;;;;;8.55;44.59;99740.38;4958036;28;20047;-81
2024/01/01 03:05:13;;;;;;;3.75;1.20;;;;;;;8.53;44.54;99737.78;4980422;28;20411;-82
2024/01/01 03:07:42;;;;;;;3.95;1.30;;;;;;;8.52;44.38;99733.34;4957089;28;20043;-81
2024/01/01 03:10:11;;;;;;;5.80;1.50;;;;;;;8.51;44.70;99738.94;4961099;28;20430;-81
2024/01/01 03:12:39;;;;;;;4.00;1.70;;;;;;;8.50;44.88;99734.50;4971590;28;20054;-82
2024/01/01 03:15:31;;;;;;;4.53;1.30;;;;;;;8.47;45.32;99727.47;4974079;28;20049;-81
2024/01/01 03:18:25;;;;;;;5.65;1.33;;;;;;;8.47;45.13;99740.25;4950517;28;20047;-82
2024/01/01 03:25:34;;;;;;;6.10;1.48;;;;;;;8.39;45.73;99732.81;4960315;28;20061;-85
2024/01/01 03:28:11;;;;;;;6.15;1.30;;;;;;;8.37;45.28;99737.56;4947156;28;20062;-84
2024/01/01 03:36:27;;;;;;;4.30;1.40;;;;;;;8.39;45.31;99734.69;4951394;28;20047;-84
2024/01/01 03:38:55;;;;;;;5.40;1.30;;;;;;;8.41;45.33;99747.16;4970806;28;20487;-84
2024/01/01 03:41:47;;;;;;;7.57;1.40;;;;;;;8.39;45.32;99746.44;4969701;28;20054;-84
2024/01/01 03:44:46;;;;;;;6.13;1.45;;;;;;;8.44;45.59;99741.41;4957749;28;20110;-85
2024/01/01 03:48:05;;;;;;;5.80;1.85;;;;;;;8.44;45.80;99746.00;4963988;28;20195;-83
2024/01/01 03:51:11;;;;;;;6.50;1.40;;;;;;;8.43;45.41;99736.09;4970139;28;20404;-83
2024/01/01 03:53:48;;;;;;;7.13;1.40;;;;;;;8.42;45.27;99735.25;4964466;28;20081;-84
2024/01/01 03:56:24;;;;;;;6.50;1.80;;;;;;;8.42;44.92;99746.16;4944425;28;20127;-84
2024/01/01 03:59:26;;;;;;;;;;;;;;;;;;;;;
2024/01/01 04:02:29;;;;;;;5.75;1.45;;;;;;;8.46;45.37;99742.13;4951828;28;20054;-84
2024/01/01 04:05:12;;;;;;;6.80;1.70;;;;;;;8.44;45.09;99743.25;4968408;28;20070;-83
2024/01/01 04:07:42;;;;;;;5.57;1.40;;;;;;;8.44;45.02;99743.25;4973395;28;20129;-85
2024/01/01 04:10:10;;;;;;;7.03;1.50;;;;;;;8.46;45.04;99747.56;4975628;28;20046;-84
2024/01/01 04:12:39;;;;;;;7.80;1.50;;;;;;;8.45;45.01;99743.13;4956070;28;20120;-84
2024/01/01 04:15:11;;;;;;;5.28;1.38;;;;;;;8.49;45.11;99740.97;4942606;28;20047;-84
2024/01/01 04:17:39;;;;;;;6.93;1.40;;;;;;;8.46;45.13;99741.25;4953241;28;20134;-84
2024/01/01 04:20:12;;;;;;;5.65;1.45;;;;;;;8.48;45.14;99731.06;4947282;28;20050;-84
2024/01/01 04:22:55;;;;;;;5.57;1.80;;;;;;;8.50;45.04;99743.56;4961633;28;20117;-84
2024/01/01 04:25:36;;;;;;;3.95;1.63;;;;;;;8.49;44.92;99733.66;4973537;28;20038;-84
2024/01/01 04:28:09;;;;;;;5.60;1.35;;;;;;;8.49;44.99;99735.53;4975579;28;20051;-84
2024/01/01 04:30:39;;;;;;;3.83;1.20;;;;;;;8.48;44.95;99731.94;4961176;28;20164;-84
2024/01/01 04:33:08;;;;;;;6.13;1.42;;;;;;;8.51;44.82;99733.47;4981985;28;20114;-84
2024/01/01 04:35:36;;;;;;;7.45;1.60;;;;;;;8.51;44.76;99726.16;4975309;28;20131;-82
2024/01/01 04:38:06;;;;;;;4.15;1.50;;;;;;;8.51;44.55;99726.16;4974555;28;20718;-84
2024/01/01 04:40:39;;;;;;;8.30;1.73;;;;;;;8.53;44.81;99723.28;4958641;28;20118;-83
2024/01/01 04:43:10;;;;;;;6.03;1.80;;;;;;;8.52;44.62;99727.03;4958280;28;20487;-84
2024/01/01 04:45:39;;;;;;;5.97;1.58;;;;;;;8.52;44.54;99727.03;4958188;28;20035;-82
2024/01/01 04:48:13;;;;;;;3.97;1.23;;;;;;;8.51;44.45;99734.34;4973784;28;20043;-83
2024/01/01 04:50:47;;;;;;;5.03;1.23;;;;;;;8.51;44.43;99730.75;4957526;28;20050;-84
2024/01/01 04:53:17;;;;;;;6.03;1.30;;;;;;;8.54;44.48;99744.09;4970536;28;20107;-84
2024/01/01 04:55:46;;;;;;;4.85;1.58;;;;;;;8.53;44.34;99739.66;4973682;28;20042;-83
2024/01/01 04:58:14;;;;;;;6.53;1.50;;;;;;;8.54;44.12;99744.09;4970512;28;20082;-83
2024/01/01 05:00:44;;;;;;;5.28;1.50;;;;;;;8.53;44.45;99743.25;4975934;28;20042;-84
2024/01/01 05:03:14;;;;;;;4.80;1.30;;;;;;;8.53;44.49;99743.25;4956806;28;20082;-84
2024/01/01 05:05:45;;;;;;;6.95;1.63;;;;;;;8.52;44.45;99752.44;4974395;28;20039;-85
2024/01/01 05:08:13;;;;;;;6.15;1.50;;;;;;;8.54;44.45;99741.38;4972552;28;20046;-83
2024/01/01 05:10:43;;;;;;;6.55;1.83;;;;;;;8.57;44.42;99749.28;4972166;28;20042;-84
2024/01/01 05:13:16;;;;;;;4.28;1.55;;;;;;;8.57;44.16;99752.00;4975600;28;20051;-84
2024/01/01 05:15:55;;;;;;;6.55;1.70;;;;;;;8.57;44.50;99752.00;4960736;28;20078;-84
2024/01/01 05:18:23;;;;;;;5.43;1.33;;;;;;;8.56;43.89;99755.72;4977066;28;20047;-84
2024/01/01 05:20:51;;;;;;;6.70;1.50;;;;;;;8.54;43.96;99739.50;4963876;28;20054;-84
2024/01/01 05:23:20;;;;;;;4.38;1.60;;;;;;;8.56;44.19;99756.59;4974386;28;20097;-85
2024/01/01 05:25:52;;;;;;;5.35;1.33;;;;;;;8.59;43.46;99752.69;4957262;28;20050;-84
2024/01/01 05:28:20;;;;;;;9.10;1.90;;;;;;;8.56;43.77;99763.91;4971676;28;20047;-85
2024/01/01 05:30:49;;;;;;;7.25;1.50;;;;;;;8.57;44.01;99766.50;4962682;28;20038;-84
2024/01/01 05:33:20;;;;;;;4.28;1.52;;;;;;;8.56;43.83;99769.38;4972763;28;20051;-84
2024/01/01 05:35:49;;;;;;;5.20;1.48;;;;;;;8.57;44.05;99768.38;4978950;28;20475;-85
2024/01/01 05:38:19;;;;;;;4.22;1.20;;;;;;;8.55;43.70;99764.91;4976536;28;20043;-85
2024/01/01 05:40:49;;;;;;;7.78;1.92;;;;;;;8.58;43.73;99775.53;4968435;28;20059;-83
2024/01/01 05:43:18;;;;;;;7.40;1.55;;;;;;;8.56;43.74;99778.41;4956077;28;20085;-83
2024/01/01 05:45:47;;;;;;;6.78;1.73;;;;;;;8.56;43.62;99777.53;4976052;28;20077;-83
2024/01/01 05:48:18;;;;;;;6.93;1.50;;;;;;;8.58;43.84;99791.91;4969812;28;20078;-84
2024/01/01 05:51:07;;;;;;;6.47;1.48;;;;;;;8.58;43.63;99791.91;4971415;28;20054;-84
2024/01/01 05:53:36;;;;;;;4.65;1.45;;;;;;;8.58;43.63;99790.03;4955631;28;20047;-84
2024/01/01 05:56:06;;;;;;;6.10;1.45;;;;;;;8.57;43.68;99788.31;4971350;28;20057;-84
2024/01/01 05:58:35;;;;;;;6.65;1.73;;;;;;;8.59;43.48;99790.88;4982749;28;20125;-83
2024/01/01 06:01:15;;;;;;;5.60;1.40;;;;;;;8.61;43.29;99797.03;4970596;28;20077;-83
2024/01/01 06:03:46;;;;;;;8.20;1.58;;;;;;;8.58;43.72;99789.16;4956123;28;20039;-84
2024/01/01 06:06:22;;;;;;;6.28;1.58;;;;;;;8.59;43.88;99802.63;4961783;28;20050;-84
2024/01/01 06:08:52;;;;;;;5.57;1.50;;;;;;;8.57;43.51;99799.22;4969587;28;20160;-84
2024/01/01 06:11:30;;;;;;;6.60;1.50;;;;;;;8.58;43.32;99803.66;4960809;28;20569;-83
2024/01/01 06:13:59;;;;;;;4.13;1.08;;;;;;;8.58;43.91;99816.44;4981680;28;20058;-83
2024/01/01 06:16:34;;;;;;;4.83;1.33;;;;;;;8.59;43.80;99812.69;4982822;28;20038;-84
2024/01/01 06:19:02;;;;;;;5.40;1.40;;;;;;;8.59;43.45;99815.41;4982357;28;20050;-84
2024/01/01 06:21:31;;;;;;;6.43;1.55;;;;;;;8.57;43.28;99820.19;4964797;28;20506;-82
2024/01/01 06:23:59;;;;;;;5.60;1.40;;;;;;;8.58;43.53;99820.03;4962651;28;20043;-83
2024/01/01 06:26:28;;;;;;;10.15;1.80;;;;;;;8.60;43.27;99828.03;4978659;28;20126;-83
2024/01/01 06:28:58;;;;;;;4.50;1.70;;;;;;;8.61;43.44;99810.69;4964125;28;20043;-83
2024/01/01 06:31:30;;;;;;;8.13;1.63;;;;;;;8.59;43.44;99819.00;4978109;28;20047;-84
2024/01/01 06:34:01;;;;;;;5.30;1.48;;;;;;;8.59;43.32;99835.38;4979689;28;20046;-83
2024/01/01 06:36:30;;;;;;;4.13;1.58;;;;;;;8.59;43.24;99826.31;4972046;28;20570;-85
2024/01/01 06:38:58;;;;;;;4.50;1.80;;;;;;;8.57;43.58;99831.09;4963128;28;20078;-84
2024/01/01 06:41:27;;;;;;;6.72;1.92;;;;;;;8.59;43.74;99843.53;4961152;28;20070;-83
2024/01/01 06:43:56;;;;;;;5.55;1.48;;;;;;;8.59;43.68;99854.47;4959765;28;20046;-84
2024/01/01 06:46:26;;;;;;;7.40;1.40;;;;;;;8.59;43.52;99851.72;4973197;28;20094;-84
2024/01/01 06:49:05;;;;;;;4.97;1.67;;;;;;;8.57;43.93;99848.31;4973010;28;20043;-84
2024/01/01 06:51:36;;;;;;;4.72;1.52;;;;;;;8.58;43.99;99852.75;4960149;28;20047;-85
2024/01/01 06:54:13;;;;;;;4.25;1.42;;;;;;;8.58;43.96;99863.66;4969017;28;20051;-84
2024/01/01 06:56:44;;;;;;;4.30;1.50;;;;;;;8.56;44.18;99853.91;4959270;28;20129;-83
2024/01/01 06:59:14;;;;;;;4.97;1.85;;;;;;;8.56;43.89;99865.69;4979378;28;20549;-83
2024/01/01 07:01:45;;;;;;;5.88;1.60;;;;;;;8.54;44.10;99866.81;4975273;28;20043;-84
2024/01/01 07:04:14;;;;;;;4.97;1.48;;;;;;;8.53;44.24;99870.53;4959121;28;20073;-84
2024/01/01 07:06:43;;;;;;;5.70;1.48;;;;;;;8.51;44.40;99872.56;4958334;28;20051;-84
2024/01/01 07:09:13;;;;;;;4.47;1.42;;;;;;;8.50;44.36;99887.22;4955252;28;20043;-84
2024/01/01 07:11:42;;;;;;;6.50;1.80;;;;;;;8.48;44.38;99879.19;4977061;28;20046;-82
2024/01/01 07:14:10;;;;;;;5.40;1.42;;;;;;;8.47;44.62;99885.63;4965760;28;20050;-84
2024/01/01 07:16:44;;;;;;;5.47;1.80;;;;;;;8.47;44.57;99892.94;4973824;28;20411;-84
2024/01/01 07:19:21;;;;;;;4.78;1.60;;;;;;;8.47;44.70;99890.22;4976357;28;20050;-86
2024/01/01 07:21:58;;;;;;;4.03;1.50;;;;;;;8.40;44.61;99902.72;4964534;28;20073;-85
2024/01/01 07:24:26;;;;;;;5.20;1.30;;;;;;;8.42;44.61;99907.03;4958731;28;20053;-85
2024/01/01 07:27:00;;;;;;;5.95;1.50;;;;;;;8.42;44.54;99911.63;4979196;28;20137;-86
2024/01/01 07:29:35;;;;;;;7.13;1.25;;;;;;;8.40;44.43;99914.47;4959547;28;20066;-85
2024/01/01 07:32:23;;;;;;;7.93;1.45;;;;;;;8.41;44.58;99921.66;4959511;28;20057;-86
2024/01/01 07:35:25;;;;;;;;;;;;;;;8.10;45.10;99923.59;4968067;28;20495;-87
2024/01/01 07:38:05;;;;;;;;;;;;;;;;;;;;;
2024/01/01 07:40:36;;;;;;;5.60;1.42;;;;;;;8.31;44.71;99927.09;4957512;28;20039;-86
2024/01/01 07:43:15;;;;;;;3.72;1.15;;;;;;;8.34;44.51;99939.59;4986255;28;20047;-86
2024/01/01 07:46:10;;;;;;;4.25;1.30;;;;;;;8.33;44.75;99938.75;4976786;28;20130;-86
2024/01/01 07:48:47;;;;;;;3.28;1.10;;;;;;;8.31;44.30;99934.41;4950274;28;20051;-86
2024/01/01 07:51:32;;;;;;;3.28;1.10;;;;;;;8.29;44.40;99948.19;4971073;28;20047;-87
2024/01/01 07:54:16;;;;;;;3.78;0.80;;;;;;;8.26;44.43;99943.00;4992753;28;20126;-87
2024/01/01 07:57:05;;;;;;;;;;;;;;;;;;;;;
2024/01/01 08:06:24;;;;;;;;;;;;;;;7.94;45.05;99970.47;4930544;29;20047;-84
2024/01/01 08:08:54;;;;;;;3.60;0.80;;;;;;;8.15;44.64;99967.69;4950785;28;19926;-84
2024/01/01 08:11:30;;;;;;;3.35;0.90;;;;;;;8.18;44.34;99972.84;4943727;29;20070;-85
2024/01/01 08:14:06;;;;;;;4.00;1.60;;;;;;;8.18;44.30;99981.00;4943514;28;20046;-85
2024/01/01 08:17:08;;;;;;;;;;;;;;;;;;;;;
2024/01/01 08:20:01;;;;;;;2.40;0.90;;;;;;;8.17;44.74;99978.44;4956994;28;20566;-85
2024/01/01 08:22:35;;;;;;;2.60;0.80;;;;;;;8.16;44.98;99985.78;4960187;28;20039;-84
2024/01/01 08:25:35;;;;;;;2.45;0.77;;;;;;;8.16;44.82;99993.94;4966722;28;20050;-85
2024/01/01 08:28:17;;;;;;;2.42;0.88;;;;;;;8.13;44.48;99991.50;4939379;29;20047;-85
2024/01/01 08:30:49;;;;;;;2.95;0.80;;;;;;;8.16;44.70;99991.22;4977096;28;20498;-84
2024/01/01 08:33:21;;;;;;;2.97;0.80;;;;;;;8.17;44.75;100009.31;4951416;28;20039;-85
2024/01/01 08:35:55;;;;;;;1.80;0.68;;;;;;;8.18;45.11;100000.09;4948406;28;20082;-86
2024/01/01 08:38:33;;;;;;;2.20;0.88;;;;;;;8.16;44.74;99999.41;4955894;28;20090;-85
2024/01/01 08:41:01;;;;;;;2.28;0.90;;;;;;;8.16;44.92;100009.44;4974316;28;20070;-84
2024/01/01 08:43:33;;;;;;;3.35;1.05;;;;;;;8.18;44.98;100011.00;4959409;28;20117;-85
2024/01/01 08:46:15;;;;;;;3.53;0.98;;;;;;;8.18;44.66;100007.41;4970882;28;20039;-85
2024/01/01 08:48:50;;;;;;;2.45;0.85;;;;;;;8.18;44.76;100004.69;4975915;28;20069;-85
2024/01/01 08:51:35;;;;;;;4.78;1.45;;;;;;;8.16;44.75;100002.13;4981421;28;20053;-86
2024/01/01 08:54:29;;;;;;;3.42;1.05;;;;;;;8.18;44.65;100032.81;4954385;28;20047;-86
2024/01/01 08:57:05;;;;;;;3.20;0.80;;;;;;;8.16;44.46;100017.63;4963212;28;20121;-85
2024/01/01 08:59:49;;;;;;;2.25;0.95;;;;;;;8.14;44.52;99995.94;4942697;28;20617;-85
2024/01/01 09:08:46;;;;;;;3.35;1.30;;;;;;;8.14;45.11;100016.88;4979428;28;20046;-85
2024/01/01 09:11:24;;;;;;;3.17;0.90;;;;;;;8.14;44.72;100027.78;4973216;28;20046;-85
2024/01/01 09:14:03;;;;;;;2.63;0.98;;;;;;;8.15;44.67;100032.22;4942519;28;20144;-85
2024/01/01 09:16:41;;;;;;;2.78;0.90;;;;;;;8.15;45.03;100033.09;4955112;28;20503;-85
2024/01/01 09:19:29;;;;;;;1.88;0.80;;;;;;;8.12;44.97;100032.47;4939937;28;20110;-86
2024/01/01 09:22:19;;;;;;;2.83;0.90;;;;;;;8.15;45.05;100041.28;4965682;28;20119;-87
2024/01/01 09:24:53;;;;;;;2.40;0.80;;;;;;;8.14;45.04;100041.41;4974304;28;20055;-86
2024/01/01 09:27:23;;;;;;;2.25;1.00;;;;;;;8.13;45.01;100045.09;4956210;28;20043;-85
2024/01/01 09:29:53;;;;;;;3.05;0.80;;;;;;;8.15;44.61;100054.03;4975751;28;20042;-85
2024/01/01 09:32:21;;;;;;;3.67;1.20;;;;;;;8.17;44.75;100066.53;4966370;28;20050;-85
2024/01/01 09:34:50;;;;;;;1.73;0.70;;;;;;;8.17;44.66;100065.66;4955833;28;20042;-84
2024/01/01 09:37:19;;;;;;;3.20;1.08;;;;;;;8.17;44.92;100074.72;4967161;28;20120;-85
2024/01/01 09:39:48;;;;;;;3.38;1.10;;;;;;;8.17;44.67;100072.00;4966599;28;20129;-85
2024/01/01 09:42:16;;;;;;;2.88;1.10;;;;;;;8.16;44.76;100078.44;4966639;28;20043;-85
2024/01/01 09:44:53;;;;;;;3.85;0.95;;;;;;;8.20;44.93;100085.31;4973624;28;20045;-86
2024/01/01 09:47:23;;;;;;;3.70;1.00;;;;;;;8.19;45.01;100089.03;4959170;28;20475;-85
2024/01/01 09:49:53;;;;;;;2.70;1.00;;;;;;;8.19;44.82;100088.19;4959455;28;20618;-85
2024/01/01 09:52:21;;;;;;;3.85;1.10;;;;;;;8.18;45.02;100094.63;4972303;28;20043;-85
2024/01/01 09:54:51;;;;;;;3.17;1.08;;;;;;;8.17;44.80;100095.66;4959837;28;20047;-86
2024/01/01 09:57:23;;;;;;;2.67;0.85;;;;;;;8.18;44.80;100106.41;4983723;28;20042;-85
2024/01/01 09:59:53;;;;;;;3.05;0.90;;;;;;;8.20;45.09;100107.13;4963540;28;20073;-85
2024/01/01 10:02:26;;;;;;;2.35;0.85;;;;;;;8.19;45.35;100112.72;4977639;28;20043;-84
2024/01/01 10:05:11;;;;;;;2.65;0.88;;;;;;;8.21;45.36;100099.81;4955769;28;20055;-85
2024/01/01 10:07:40;;;;;;;3.25;0.90;;;;;;;8.19;45.13;100108.13;4974734;28;20129;-85
2024/01/01 10:10:10;;;;;;;3.83;1.10;;;;;;;8.22;45.20;100098.81;4959036;28;20093;-85
2024/01/01 10:12:45;;;;;;;2.80;0.90;;;;;;;8.21;45.24;100113.44;4962164;28;20055;-85
2024/01/01 10:15:18;;;;;;;2.65;1.00;;;;;;;8.25;44.83;100117.63;4958114;28;20039;-85
2024/01/01 10:17:47;;;;;;;3.47;1.00;;;;;;;8.22;44.93;100112.44;4975100;28;20070;-85
2024/01/01 10:20:21;;;;;;;4.88;1.20;;;;;;;8.24;44.83;100105.88;4963909;28;20678;-85
2024/01/01 10:22:50;;;;;;;2.85;0.85;;;;;;;8.26;44.88;100108.44;4963774;28;20040;-85
2024/01/01 10:25:22;;;;;;;3.13;1.15;;;;;;;8.27;45.04;100119.19;4950524;28;20049;-85
2024/01/01 10:31:19;;;;;;;2.50;0.82;;;;;;;8.28;45.16;100126.38;4964777;28;20078;-85
2024/01/01 10:33:50;;;;;;;2.75;1.00;;;;;;;8.26;45.30;100131.09;4956697;28;20494;-85
2024/01/01 10:36:19;;;;;;;4.13;1.08;;;;;;;8.29;45.09;100124.53;4977809;28;20105;-85
2024/01/01 10:38:50;;;;;;;3.63;1.00;;;;;;;8.32;44.86;100135.16;4980255;28;20097;-85
2024/01/01 10:41:19;;;;;;;2.70;1.05;;;;;;;8.32;44.67;100132.44;4978953;28;20141;-85
2024/01/01 10:43:56;;;;;;;4.22;1.48;;;;;;;8.34;45.23;100128.56;4974408;28;20039;-85
2024/01/01 10:46:34;;;;;;;5.13;1.20;;;;;;;8.34;44.91;100123.09;4958754;28;20121;-86
2024/01/01 10:49:04;;;;;;;5.28;1.60;;;;;;;8.36;44.90;100127.56;4950299;28;20042;-85
2024/01/01 10:52:04;;;;;;;5.15;1.30;;;;;;;8.34;44.81;100125.81;4958844;28;20097;-85
2024/01/01 10:54:55;;;;;;;3.88;1.40;;;;;;;8.37;44.65;100134.75;4959986;28;20061;-85
2024/01/01 10:57:42;;;;;;;4.05;1.10;;;;;;;8.38;45.07;100131.00;4972148;28;20051;-85
2024/01/01 11:00:19;;;;;;;3.05;1.02;;;;;;;8.39;45.19;100122.69;4925832;28;1251561;-84
2024/01/01 11:03:45;;;;;;;;;;;;;;;;;;;;;
2024/01/01 11:10:44;;;;;;;2.70;1.08;;;;;;;8.45;45.10;100129.47;4963081;28;20498;-74
2024/01/01 11:13:37;;;;;;;3.13;1.20;;;;;;;8.49;45.19;100122.75;4950695;28;20438;-73
2024/01/01 11:16:06;;;;;;;4.38;1.10;;;;;;;8.49;45.40;100134.50;4951719;28;20047;-73
2024/01/01 11:18:35;;;;;;;4.90;1.30;;;;;;;8.54;45.12;100140.41;4952024;29;20039;-73
2024/01/01 11:21:09;;;;;;;2.88;1.17;;;;;;;8.55;45.82;100144.00;4934265;29;20054;-73
2024/01/01 11:23:45;;;;;;;3.47;1.10;;;;;;;8.64;45.46;100148.63;4948569;29;20114;-74
2024/01/01 11:26:31;;;;;;;3.63;1.27;;;;;;;8.67;45.23;100153.81;4938291;28;20052;-73
2024/01/01 11:29:02;;;;;;;3.47;1.17;;;;;;;8.70;45.49;100146.19;4931143;29;20083;-73
2024/01/01 11:31:31;;;;;;;4.07;1.20;;;;;;;8.75;45.26;100148.50;4942145;28;20043;-74
2024/01/01 11:34:00;;;;;;;3.72;1.00;;;;;;;8.80;45.01;100154.41;4931227;29;20127;-73
2024/01/01 11:36:45;;;;;;;3.35;1.00;;;;;;;8.82;44.93;100155.13;4950562;28;20062;-72
2024/01/01 11:39:14;;;;;;;3.15;0.90;;;;;;;8.86;45.09;100155.69;4965368;28;20143;-73
2024/01/01 11:41:42;;;;;;;3.08;1.15;;;;;;;8.88;45.11;100151.84;4968919;28;20382;-74
2024/01/01 11:44:11;;;;;;;3.00;1.00;;;;;;;8.92;44.84;100158.72;4970938;28;20114;-73
2024/01/01 11:46:39;;;;;;;3.78;1.30;;;;;;;8.93;45.20;100163.19;4969562;28;20043;-73
2024/01/01 11:49:08;;;;;;;4.65;1.42;;;;;;;8.96;44.98;100151.13;4968123;28;20047;-74
2024/01/01 11:51:50;;;;;;;4.32;1.17;;;;;;;8.99;44.75;100162.63;4970419;28;20093;-74
2024/01/01 11:54:19;;;;;;;3.50;1.10;;;;;;;8.98;44.73;100158.19;4971289;28;20050;-72
2024/01/01 11:56:51;;;;;;;5.13;1.20;;;;;;;8.99;44.81;100161.78;4970878;28;20067;-73
2024/01/01 11:59:22;;;;;;;4.25;1.20;;;;;;;9.01;44.84;100166.06;4961018;28;20057;-74
2024/01/01 12:01:51;;;;;;;3.88;1.08;;;;;;;9.01;44.50;100163.34;4972896;28;20166;-74
2024/01/01 12:04:20;;;;;;;4.18;1.20;;;;;;;9.01;44.72;100165.19;4949619;28;20051;-74
2024/01/01 12:06:51;;;;;;;5.00;1.30;;;;;;;9.02;44.29;100162.34;4955952;28;20557;-74
2024/01/01 12:09:20;;;;;;;3.40;1.25;;;;;;;9.02;44.36;100169.66;4975639;28;20524;-74
2024/01/01 12:11:50;;;;;;;3.10;1.30;;;;;;;9.01;44.29;100159.75;4969263;28;20224;-74
2024/01/01 12:14:25;;;;;;;4.72;1.45;;;;;;;9.04;44.55;100163.06;4968940;28;20086;-74
2024/01/01 12:16:54;;;;;;;4.63;1.13;;;;;;;9.00;44.66;100156.16;4965980;28;20469;-73
2024/01/01 12:19:23;;;;;;;4.35;1.30;;;;;;;9.00;44.07;100149.84;4970017;28;20051;-76
2024/01/01 12:21:52;;;;;;;4.95;1.20;;;;;;;8.98;44.40;100158.19;4970878;28;20612;-73
2024/01/01 12:24:22;;;;;;;5.43;2.08;;;;;;;8.98;44.25;100141.81;4969627;28;20158;-74
2024/01/01 12:26:51;;;;;;;4.75;1.27;;;;;;;8.99;44.38;100167.22;4976563;28;20043;-74
2024/01/01 12:29:21;;;;;;;5.28;1.67;;;;;;;8.98;44.17;100155.44;4971662;28;20098;-74
2024/01/01 12:31:50;;;;;;;4.97;1.30;;;;;;;8.98;44.20;100160.91;4970045;28;20051;-75
2024/01/01 12:34:19;;;;;;;6.50;1.75;;;;;;;8.98;44.09;100157.31;4964170;28;20042;-75
2024/01/01 12:36:49;;;;;;;4.63;1.35;;;;;;;8.97;44.23;100158.31;4970802;28;20498;-75
2024/01/01 12:39:17;;;;;;;4.55;1.48;;;;;;;8.98;44.24;100169.09;4981684;23;20098;-77
2024/01/01 12:41:47;;;;;;;5.03;1.35;;;;;;;8.98;44.26;100168.22;5002287;28;20504;-76
2024/01/01 12:44:14;;;;;;;4.53;1.60;;;;;;;8.96;44.55;100154.72;5007207;28;20095;-77
2024/01/01 12:46:42;;;;;;;7.53;1.45;;;;;;;8.97;44.50;100171.97;4993254;28;20045;-76
2024/01/01 12:49:11;;;;;;;5.22;1.67;;;;;;;8.98;44.35;100168.22;4998514;28;20067;-77
2024/01/01 12:51:39;;;;;;;6.97;1.52;;;;;;;8.99;44.06;100162.63;5006902;28;20456;-77
2024/01/01 12:54:07;;;;;;;5.10;1.35;;;;;;;8.99;44.19;100181.75;5006589;28;20520;-75
2024/01/01 12:56:35;;;;;;;4.00;1.45;;;;;;;8.99;44.48;100170.81;5003385;28;20460;-76